Time;durP1;ratioP1;P1;durP2;ratioP2;P2;SDS_P1;SDS_P2;PMS_P1;PMS_P2;Temp;Humidity;BMP_temperature;BMP_pressure;BME280_temperature;BME280_humidity;BME280_pressure;Samples;Min_cycle;Max_cycle;Signal;HPM_P1;HPM_P2
2023/12/11 00:00:59;;;;;;;2.45;1.33;;;;;;;;;;5017280;28;20049;-78
2023/12/11 00:03:26;;;;;;;5.95;1.67;;;;;;;;;;5015455;28;20044;-78
2023/12/11 00:05:54;;;;;;;2.28;1.33;;;;;;;;;;5013999;28;20415;-78
2023/12/11 00:08:21;;;;;;;2.88;0.98;;;;;;;;;;5047035;28;20526;-78
2023/12/11 00:10:48;;;;;;;1.67;0.93;;;;;;;;;;5030930;28;20037;-79
2023/12/11 00:13:17;;;;;;;3.70;0.90;;;;;;;;;;5029586;28;20057;-78
2023/12/11 00:15:47;;;;;;;1.52;0.90;;;;;;;;;;5035106;28;20431;-78
2023/12/11 00:18:14;;;;;;;1.05;0.80;;;;;;;;;;5033305;28;20498;-78
2023/12/11 00:20:44;;;;;;;1.98;1.20;;;;;;;;;;5036999;28;20052;-78
2023/12/11 00:23:13;;;;;;;1.40;0.90;;;;;;;;;;5020928;28;20076;-78
2023/12/11 00:25:46;;;;;;;3.08;2.08;;;;;;;;;;5037513;28;20049;-78
2023/12/11 00:28:14;;;;;;;1.20;0.73;;;;;;;;;;5037921;28;20513;-78
2023/12/11 00:30:45;;;;;;;1.15;0.70;;;;;;;;;;5038063;28;20045;-78
2023/12/11 00:33:12;;;;;;;1.58;0.70;;;;;;;;;;5055061;28;20052;-78
2023/12/11 00:35:39;;;;;;;0.85;0.70;;;;;;;;;;5029587;28;20430;-79
2023/12/11 00:38:06;;;;;;;2.25;0.90;;;;;;;;;;5020821;28;20049;-79
2023/12/11 00:40:34;;;;;;;2.28;1.35;;;;;;;;;;5037551;28;20053;-79
2023/12/11 00:43:06;;;;;;;6.90;1.23;;;;;;;;;;5019646;28;20048;-79
2023/12/11 00:45:33;;;;;;;0.93;0.70;;;;;;;;;;5054308;28;20498;-79
2023/12/11 00:48:05;;;;;;;1.25;1.02;;;;;;;;;;5017524;28;20427;-79
2023/12/11 00:50:35;;;;;;;1.38;1.02;;;;;;;;;;5017781;28;20049;-79
2023/12/11 00:53:02;;;;;;;2.03;1.02;;;;;;;;;;5018812;28;20275;-79
2023/12/11 00:55:29;;;;;;;3.45;1.20;;;;;;;;;;5055290;28;20049;-79
2023/12/11 00:58:01;;;;;;;1.60;0.68;;;;;;;;;;5038744;28;20045;-79
2023/12/11 01:00:29;;;;;;;2.95;1.45;;;;;;;;;;5026933;28;20045;-79
2023/12/11 01:02:57;;;;;;;1.40;1.17;;;;;;;;;;5021228;28;20040;-79
2023/12/11 01:05:25;;;;;;;1.17;0.70;;;;;;;;;;5036122;28;20506;-79
2023/12/11 01:07:53;;;;;;;4.55;0.90;;;;;;;;;;5037609;28;20068;-78
2023/12/11 01:10:20;;;;;;;1.58;1.02;;;;;;;;;;5037545;28;20052;-78
2023/12/11 01:12:52;;;;;;;0.98;0.80;;;;;;;;;;5055345;28;20044;-78
2023/12/11 01:15:20;;;;;;;1.30;0.70;;;;;;;;;;5027453;28;20045;-78
2023/12/11 01:17:47;;;;;;;1.20;1.10;;;;;;;;;;5036139;28;20499;-79
2023/12/11 01:20:14;;;;;;;1.40;0.57;;;;;;;;;;5019381;28;20072;-79
2023/12/11 01:22:45;;;;;;;3.05;0.90;;;;;;;;;;5054536;28;20049;-79
2023/12/11 01:25:15;;;;;;;1.40;0.77;;;;;;;;;;5039402;28;20060;-79
2023/12/11 01:27:42;;;;;;;1.10;1.00;;;;;;;;;;5035521;28;20045;-79
2023/12/11 01:30:12;;;;;;;2.67;0.70;;;;;;;;;;5035560;28;20060;-79
2023/12/11 01:32:41;;;;;;;1.35;0.95;;;;;;;;;;5034071;28;20042;-79
2023/12/11 01:35:11;;;;;;;0.90;0.80;;;;;;;;;;5021731;28;20364;-79
2023/12/11 01:37:38;;;;;;;0.80;0.65;;;;;;;;;;5033208;28;20056;-79
2023/12/11 01:40:08;;;;;;;0.90;0.70;;;;;;;;;;5055845;28;20065;-79
2023/12/11 01:42:38;;;;;;;1.80;0.70;;;;;;;;;;5046375;28;20051;-79
2023/12/11 01:45:06;;;;;;;1.42;0.80;;;;;;;;;;5056042;28;20287;-79
2023/12/11 01:47:36;;;;;;;2.22;0.68;;;;;;;;;;5055981;28;20507;-79
2023/12/11 01:50:08;;;;;;;3.60;1.77;;;;;;;;;;5042505;28;20056;-78
2023/12/11 01:52:38;;;;;;;1.90;0.90;;;;;;;;;;5051734;22;20056;-77
2023/12/11 01:55:08;;;;;;;0.85;0.60;;;;;;;;;;5039382;28;20045;-77
2023/12/11 01:57:37;;;;;;;2.20;0.80;;;;;;;;;;5020344;28;20133;-77
2023/12/11 02:00:07;;;;;;;1.02;0.93;;;;;;;;;;5050477;28;20056;-77
2023/12/11 02:02:37;;;;;;;1.67;1.15;;;;;;;;;;5046007;28;20518;-78
2023/12/11 02:05:04;;;;;;;1.85;0.90;;;;;;;;;;5042117;28;20492;-78
2023/12/11 02:07:32;;;;;;;1.95;1.15;;;;;;;;;;5024933;28;20052;-78
2023/12/11 02:10:01;;;;;;;1.38;0.95;;;;;;;;;;5033315;28;20053;-78
2023/12/11 02:12:30;;;;;;;1.38;1.00;;;;;;;;;;5036830;28;20041;-78
2023/12/11 02:14:59;;;;;;;1.25;1.00;;;;;;;;;;5022538;28;20081;-78
2023/12/11 02:17:33;;;;;;;1.70;0.68;;;;;;;;;;5049845;28;20060;-78
2023/12/11 02:20:00;;;;;;;1.10;0.60;;;;;;;;;;5049156;28;20056;-78
2023/12/11 02:22:28;;;;;;;0.82;0.60;;;;;;;;;;5046852;28;20033;-78
2023/12/11 02:24:59;;;;;;;1.80;0.75;;;;;;;;;;5022219;28;20412;-78
2023/12/11 02:27:28;;;;;;;0.60;0.60;;;;;;;;;;5047424;28;20041;-78
2023/12/11 02:29:56;;;;;;;3.25;1.20;;;;;;;;;;5029291;28;20087;-78
2023/12/11 02:32:25;;;;;;;1.65;0.63;;;;;;;;;;5045398;28;20075;-78
2023/12/11 02:34:55;;;;;;;0.90;0.70;;;;;;;;;;5034623;28;20060;-78
2023/12/11 02:37:24;;;;;;;1.40;0.82;;;;;;;;;;5040665;28;20040;-78
2023/12/11 02:39:52;;;;;;;1.85;1.35;;;;;;;;;;5047044;28;20048;-78
2023/12/11 02:42:19;;;;;;;1.05;0.77;;;;;;;;;;5036263;28;20056;-79
2023/12/11 02:44:48;;;;;;;1.25;0.95;;;;;;;;;;5030709;28;20048;-79
2023/12/11 02:47:15;;;;;;;3.58;0.93;;;;;;;;;;5036188;28;20057;-79
2023/12/11 02:49:45;;;;;;;1.77;1.52;;;;;;;;;;5034864;28;20047;-79
2023/12/11 02:52:12;;;;;;;2.80;1.13;;;;;;;;;;5030952;28;20491;-79
2023/12/11 02:54:39;;;;;;;1.08;0.75;;;;;;;;;;5021367;28;20388;-79
2023/12/11 02:57:07;;;;;;;1.33;0.90;;;;;;;;;;5045540;28;20049;-79
2023/12/11 02:59:34;;;;;;;2.05;1.27;;;;;;;;;;5060216;28;20047;-79
2023/12/11 03:02:03;;;;;;;2.75;1.10;;;;;;;;;;5022181;28;20045;-79
2023/12/11 03:04:33;;;;;;;2.08;0.90;;;;;;;;;;5048761;28;20047;-79
2023/12/11 03:07:00;;;;;;;2.50;1.55;;;;;;;;;;5024991;28;20049;-79
2023/12/11 03:09:30;;;;;;;3.22;1.00;;;;;;;;;;5031910;28;20384;-79
2023/12/11 03:11:57;;;;;;;1.60;0.90;;;;;;;;;;5041940;28;20049;-79
2023/12/11 03:14:24;;;;;;;1.27;0.93;;;;;;;;;;5059472;28;20060;-79
2023/12/11 03:16:52;;;;;;;3.30;0.95;;;;;;;;;;5017951;28;20061;-79
2023/12/11 03:19:20;;;;;;;2.70;1.13;;;;;;;;;;5016230;28;20037;-79
2023/12/11 03:21:47;;;;;;;1.23;0.85;;;;;;;;;;5044444;28;20451;-79
2023/12/11 03:24:17;;;;;;;0.90;0.70;;;;;;;;;;5030896;28;20055;-79
2023/12/11 03:26:44;;;;;;;1.00;0.85;;;;;;;;;;5049575;28;20120;-79
2023/12/11 03:29:16;;;;;;;1.98;0.90;;;;;;;;;;5050909;28;20053;-79
2023/12/11 03:31:44;;;;;;;1.17;0.70;;;;;;;;;;5042005;28;20052;-79
2023/12/11 03:34:13;;;;;;;2.05;0.90;;;;;;;;;;5037292;28;20041;-79
2023/12/11 03:36:42;;;;;;;1.08;0.77;;;;;;;;;;5047812;28;20859;-79
2023/12/11 03:39:09;;;;;;;1.58;1.10;;;;;;;;;;5033372;28;20076;-79
2023/12/11 03:41:38;;;;;;;1.42;1.15;;;;;;;;;;5029438;28;20067;-78
2023/12/11 03:44:05;;;;;;;1.70;1.25;;;;;;;;;;5032120;28;20048;-78
2023/12/11 03:46:35;;;;;;;1.35;1.25;;;;;;;;;;5058088;28;20076;-78
2023/12/11 03:49:02;;;;;;;1.20;0.90;;;;;;;;;;5027779;28;20049;-78
2023/12/11 03:51:29;;;;;;;2.92;1.27;;;;;;;;;;5040765;28;20060;-78
2023/12/11 03:54:00;;;;;;;1.65;1.23;;;;;;;;;;5039443;28;20050;-78
2023/12/11 03:56:28;;;;;;;0.70;0.65;;;;;;;;;;5038761;28;20061;-78
2023/12/11 03:58:57;;;;;;;0.93;0.70;;;;;;;;;;5038067;28;20538;-78
2023/12/11 04:01:24;;;;;;;0.70;0.43;;;;;;;;;;5044763;28;20403;-78
2023/12/11 04:03:52;;;;;;;0.60;0.60;;;;;;;;;;5040698;28;20053;-78
2023/12/11 04:06:19;;;;;;;3.65;1.17;;;;;;;;;;5050142;28;20053;-78
2023/12/11 04:08:46;;;;;;;1.48;0.70;;;;;;;;;;5029379;28;20060;-78
2023/12/11 04:11:15;;;;;;;1.45;0.95;;;;;;;;;;5025614;28;20446;-78
2023/12/11 04:13:42;;;;;;;0.95;0.68;;;;;;;;;;5024333;28;20057;-78
2023/12/11 04:16:12;;;;;;;0.75;0.70;;;;;;;;;;5044924;28;20044;-78
2023/12/11 04:18:41;;;;;;;2.72;0.88;;;;;;;;;;5040925;28;20376;-78
2023/12/11 04:21:13;;;;;;;0.63;0.60;;;;;;;;;;5013120;28;20064;-78
2023/12/11 04:23:40;;;;;;;1.27;0.80;;;;;;;;;;5025393;28;20052;-78
2023/12/11 04:26:07;;;;;;;1.25;1.15;;;;;;;;;;5008611;28;20562;-78
2023/12/11 04:28:36;;;;;;;1.50;1.00;;;;;;;;;;5020628;28;20059;-78
2023/12/11 04:31:03;;;;;;;1.00;0.80;;;;;;;;;;5047941;28;20053;-78
2023/12/11 04:33:32;;;;;;;1.00;0.70;;;;;;;;;;5039666;28;20041;-78
2023/12/11 04:36:00;;;;;;;0.65;0.60;;;;;;;;;;5035372;28;20033;-78
2023/12/11 04:38:27;;;;;;;0.77;0.65;;;;;;;;;;5039211;28;20061;-78
2023/12/11 04:40:54;;;;;;;1.20;0.90;;;;;;;;;;5019722;28;20064;-78
2023/12/11 04:43:24;;;;;;;1.20;0.90;;;;;;;;;;5025406;28;20514;-78
2023/12/11 04:45:52;;;;;;;0.77;0.77;;;;;;;;;;5048520;28;20398;-78
2023/12/11 04:48:20;;;;;;;1.33;0.50;;;;;;;;;;5055192;28;20055;-78
2023/12/11 04:50:47;;;;;;;1.83;0.73;;;;;;;;;;5025981;28;20064;-78
2023/12/11 04:53:16;;;;;;;0.90;0.57;;;;;;;;;;5035364;28;20072;-78
2023/12/11 04:55:44;;;;;;;0.95;0.55;;;;;;;;;;5051516;28;20048;-79
2023/12/11 04:58:11;;;;;;;1.33;0.63;;;;;;;;;;5018365;28;20056;-79
2023/12/11 05:00:41;;;;;;;1.30;0.70;;;;;;;;;;5038185;28;20483;-79
2023/12/11 05:03:09;;;;;;;0.57;0.57;;;;;;;;;;5023761;28;20045;-78
2023/12/11 05:05:39;;;;;;;1.38;0.77;;;;;;;;;;5039120;28;20053;-78
2023/12/11 05:08:09;;;;;;;1.10;0.80;;;;;;;;;;5017031;28;20510;-78
2023/12/11 05:10:39;;;;;;;1.13;0.77;;;;;;;;;;5021027;28;20056;-78
2023/12/11 05:13:09;;;;;;;0.63;0.60;;;;;;;;;;5027807;28;20041;-78
2023/12/11 05:15:39;;;;;;;0.90;0.60;;;;;;;;;;5026777;28;20064;-79
2023/12/11 05:18:10;;;;;;;0.77;0.60;;;;;;;;;;5044047;28;20045;-79
2023/12/11 05:20:40;;;;;;;1.92;0.60;;;;;;;;;;5016917;28;20045;-79
2023/12/11 05:23:07;;;;;;;0.82;0.55;;;;;;;;;;5017542;28;20045;-79
2023/12/11 05:25:34;;;;;;;0.80;0.60;;;;;;;;;;5036360;28;20053;-79
2023/12/11 05:28:04;;;;;;;1.13;1.02;;;;;;;;;;5017244;28;20080;-79
2023/12/11 05:30:34;;;;;;;1.02;0.73;;;;;;;;;;5019937;28;20079;-79
2023/12/11 05:33:01;;;;;;;0.77;0.70;;;;;;;;;;5029675;28;20056;-79
2023/12/11 05:35:32;;;;;;;0.68;0.68;;;;;;;;;;5017022;28;20518;-79
2023/12/11 05:37:59;;;;;;;0.98;0.60;;;;;;;;;;5010117;28;20056;-79
2023/12/11 05:40:29;;;;;;;1.08;0.70;;;;;;;;;;5018454;28;20045;-79
2023/12/11 05:42:56;;;;;;;1.52;0.77;;;;;;;;;;5024289;28;20060;-79
2023/12/11 05:45:23;;;;;;;2.38;0.63;;;;;;;;;;5033277;28;20044;-79
2023/12/11 05:47:51;;;;;;;1.17;0.80;;;;;;;;;;5042355;28;20053;-79
2023/12/11 05:50:18;;;;;;;0.75;0.75;;;;;;;;;;5034364;28;20046;-79
2023/12/11 05:52:46;;;;;;;0.90;0.70;;;;;;;;;;5031733;28;20045;-79
2023/12/11 05:55:14;;;;;;;0.93;0.68;;;;;;;;;;5005760;28;20041;-79
2023/12/11 05:57:43;;;;;;;0.85;0.70;;;;;;;;;;5019775;28;20557;-79
2023/12/11 06:00:11;;;;;;;1.33;1.00;;;;;;;;;;5016665;28;20052;-79
2023/12/11 06:02:43;;;;;;;1.75;1.17;;;;;;;;;;5023820;28;20049;-79
2023/12/11 06:05:12;;;;;;;2.88;0.80;;;;;;;;;;5016448;28;20049;-79
2023/12/11 06:07:40;;;;;;;3.20;1.10;;;;;;;;;;5021535;28;20044;-79
2023/12/11 06:10:09;;;;;;;3.70;1.35;;;;;;;;;;5022580;28;20050;-79
2023/12/11 06:12:36;;;;;;;1.00;0.90;;;;;;;;;;5035475;28;20051;-79
2023/12/11 06:15:05;;;;;;;1.02;0.90;;;;;;;;;;5026401;28;20041;-79
2023/12/11 06:17:32;;;;;;;1.02;0.75;;;;;;;;;;5029211;28;20052;-79
2023/12/11 06:20:00;;;;;;;1.10;0.70;;;;;;;;;;5037327;28;20049;-79
2023/12/11 06:22:29;;;;;;;1.55;0.90;;;;;;;;;;5023451;28;20049;-79
2023/12/11 06:24:57;;;;;;;1.50;0.90;;;;;;;;;;5041357;28;20045;-79
2023/12/11 06:27:27;;;;;;;1.35;0.90;;;;;;;;;;5032771;28;20562;-79
2023/12/11 06:29:55;;;;;;;2.95;0.70;;;;;;;;;;5038268;28;20522;-79
2023/12/11 06:32:27;;;;;;;3.08;1.13;;;;;;;;;;5044768;28;20056;-79
2023/12/11 06:34:54;;;;;;;2.03;0.80;;;;;;;;;;5037873;28;20052;-79
2023/12/11 06:37:21;;;;;;;0.80;0.60;;;;;;;;;;5041609;28;20049;-80
2023/12/11 06:39:53;;;;;;;0.82;0.70;;;;;;;;;;5038785;28;20060;-78
2023/12/11 06:42:23;;;;;;;1.02;0.85;;;;;;;;;;5019590;28;20446;-77
2023/12/11 06:44:54;;;;;;;3.08;0.70;;;;;;;;;;5032298;28;20071;-78
2023/12/11 06:47:23;;;;;;;0.85;0.57;;;;;;;;;;5033157;28;20044;-78
2023/12/11 06:49:51;;;;;;;2.33;0.65;;;;;;;;;;5036866;28;20065;-78
2023/12/11 06:52:18;;;;;;;1.40;0.85;;;;;;;;;;5018425;28;20044;-78
2023/12/11 06:54:45;;;;;;;0.95;0.75;;;;;;;;;;5033719;28;20049;-77
2023/12/11 06:57:15;;;;;;;2.42;0.73;;;;;;;;;;5017541;28;20407;-78
2023/12/11 06:59:42;;;;;;;0.63;0.52;;;;;;;;;;5034472;28;20067;-78
2023/12/11 07:02:13;;;;;;;0.90;0.50;;;;;;;;;;5019848;28;20054;-78
2023/12/11 07:04:41;;;;;;;3.10;1.27;;;;;;;;;;5030170;28;20064;-78
2023/12/11 07:07:11;;;;;;;0.80;0.60;;;;;;;;;;5030538;28;20048;-78
2023/12/11 07:09:46;;;;;;;2.15;0.95;;;;;;;;;;5019010;28;20543;-78
2023/12/11 07:12:15;;;;;;;1.00;0.88;;;;;;;;;;5037284;28;20068;-78
2023/12/11 07:14:45;;;;;;;3.40;1.20;;;;;;;;;;5014372;28;20400;-78
2023/12/11 07:17:14;;;;;;;1.60;0.80;;;;;;;;;;5030505;28;20052;-78
2023/12/11 07:19:46;;;;;;;1.30;1.20;;;;;;;;;;5034323;28;20068;-78
2023/12/11 07:22:13;;;;;;;3.60;0.93;;;;;;;;;;5039888;28;20052;-78
2023/12/11 07:24:43;;;;;;;1.73;1.17;;;;;;;;;;5040855;28;20522;-78
2023/12/11 07:27:13;;;;;;;3.22;1.63;;;;;;;;;;5033568;28;20048;-78
2023/12/11 07:29:42;;;;;;;3.08;1.75;;;;;;;;;;5039842;28;20052;-78
2023/12/11 07:32:14;;;;;;;3.28;1.70;;;;;;;;;;5018478;28;20064;-78
2023/12/11 07:34:44;;;;;;;3.58;1.23;;;;;;;;;;5037854;28;20044;-78
2023/12/11 07:37:16;;;;;;;1.63;0.95;;;;;;;;;;5021140;28;20049;-78
2023/12/11 07:39:46;;;;;;;2.03;0.80;;;;;;;;;;5036286;28;20056;-79
2023/12/11 07:42:15;;;;;;;4.22;2.22;;;;;;;;;;5042978;28;20048;-80
2023/12/11 07:44:43;;;;;;;0.82;0.70;;;;;;;;;;5041557;28;20052;-80
2023/12/11 07:47:10;;;;;;;1.25;1.10;;;;;;;;;;5041454;28;20641;-80
2023/12/11 07:49:41;;;;;;;3.20;2.28;;;;;;;;;;5043013;22;21403;-81
2023/12/11 07:52:08;;;;;;;5.38;2.60;;;;;;;;;;5070378;28;20051;-81
2023/12/11 07:54:36;;;;;;;2.63;1.40;;;;;;;;;;5057989;28;20429;-81
2023/12/11 07:57:04;;;;;;;2.92;1.20;;;;;;;;;;5051636;28;20060;-80
2023/12/11 07:59:34;;;;;;;3.13;0.90;;;;;;;;;;5061760;28;20063;-80
2023/12/11 08:02:04;;;;;;;2.80;1.60;;;;;;;;;;5043996;28;20060;-81
2023/12/11 08:04:38;;;;;;;1.20;1.00;;;;;;;;;;5039158;28;20051;-81
2023/12/11 08:07:10;;;;;;;2.55;1.95;;;;;;;;;;5032280;28;20049;-81
2023/12/11 08:09:39;;;;;;;1.08;0.80;;;;;;;;;;5031546;28;20059;-81
2023/12/11 08:12:09;;;;;;;1.65;1.20;;;;;;;;;;5034983;28;20051;-81
2023/12/11 08:14:37;;;;;;;3.13;1.35;;;;;;;;;;5057845;28;20042;-81
2023/12/11 08:17:06;;;;;;;3.15;1.50;;;;;;;;;;5016583;28;20050;-81
2023/12/11 08:19:33;;;;;;;3.30;1.20;;;;;;;;;;5025909;28;20056;-81
2023/12/11 08:22:04;;;;;;;1.73;1.45;;;;;;;;;;5021337;28;20609;-80
2023/12/11 08:24:33;;;;;;;2.80;1.08;;;;;;;;;;5056159;28;20495;-80
2023/12/11 08:27:00;;;;;;;3.05;1.40;;;;;;;;;;5030831;28;20049;-80
2023/12/11 08:29:29;;;;;;;2.70;1.27;;;;;;;;;;5022383;28;20045;-80
2023/12/11 08:31:57;;;;;;;4.63;1.73;;;;;;;;;;5020837;28;20526;-80
2023/12/11 08:34:24;;;;;;;4.00;2.00;;;;;;;;;;5040821;28;20040;-80
2023/12/11 08:36:54;;;;;;;6.43;1.80;;;;;;;;;;5059097;28;20068;-80
2023/12/11 08:39:22;;;;;;;2.08;1.88;;;;;;;;;;5040665;28;20052;-81
2023/12/11 08:41:51;;;;;;;9.43;2.22;;;;;;;;;;5047515;28;20057;-81
2023/12/11 08:44:21;;;;;;;1.67;1.42;;;;;;;;;;5062861;28;20042;-81
2023/12/11 08:46:50;;;;;;;2.30;1.45;;;;;;;;;;5023039;28;20067;-80
2023/12/11 08:49:17;;;;;;;1.90;0.90;;;;;;;;;;5054876;28;20048;-80
2023/12/11 08:51:44;;;;;;;2.15;1.60;;;;;;;;;;5037698;28;20041;-81
2023/12/11 08:54:14;;;;;;;2.15;0.85;;;;;;;;;;5022585;28;20052;-81
2023/12/11 08:56:41;;;;;;;1.00;0.80;;;;;;;;;;5028639;28;20049;-81
2023/12/11 08:59:15;;;;;;;1.63;1.00;;;;;;;;;;5025828;28;20045;-81
2023/12/11 09:01:43;;;;;;;1.00;0.88;;;;;;;;;;5051757;28;20061;-81
2023/12/11 09:04:10;;;;;;;1.65;0.98;;;;;;;;;;5040942;28;20048;-81
2023/12/11 09:06:38;;;;;;;5.20;1.27;;;;;;;;;;5035535;28;20060;-81
2023/12/11 09:09:05;;;;;;;2.65;1.08;;;;;;;;;;5045370;28;20061;-81
2023/12/11 09:11:32;;;;;;;2.10;1.02;;;;;;;;;;5043053;28;20052;-81
2023/12/11 09:14:02;;;;;;;1.80;1.27;;;;;;;;;;5053863;28;20063;-81
2023/12/11 09:16:33;;;;;;;2.53;1.45;;;;;;;;;;5028506;28;20039;-81
2023/12/11 09:19:00;;;;;;;1.48;0.98;;;;;;;;;;5049352;28;20048;-81
2023/12/11 09:21:27;;;;;;;1.55;1.23;;;;;;;;;;5057720;28;20057;-81
2023/12/11 09:23:55;;;;;;;1.67;1.00;;;;;;;;;;5042801;28;20053;-81
2023/12/11 09:26:22;;;;;;;3.03;2.22;;;;;;;;;;5027274;28;20037;-81
2023/12/11 09:28:49;;;;;;;3.63;2.00;;;;;;;;;;5043807;28;20057;-81
2023/12/11 09:31:19;;;;;;;4.75;3.38;;;;;;;;;;5041679;28;20055;-81
2023/12/11 09:33:48;;;;;;;4.63;2.72;;;;;;;;;;5055430;28;20550;-81
2023/12/11 09:36:15;;;;;;;2.88;2.03;;;;;;;;;;5020983;28;20049;-81
2023/12/11 09:38:43;;;;;;;2.72;2.22;;;;;;;;;;5045278;28;20045;-81
2023/12/11 09:41:09;;;;;;;6.32;2.05;;;;;;;;;;5043302;28;20056;-80
2023/12/11 09:43:39;;;;;;;3.30;1.27;;;;;;;;;;5024253;28;20049;-81
2023/12/11 09:46:08;;;;;;;1.77;1.02;;;;;;;;;;5057250;28;20053;-81
2023/12/11 09:48:35;;;;;;;1.05;0.73;;;;;;;;;;5042471;28;20045;-81
2023/12/11 09:51:05;;;;;;;2.33;1.08;;;;;;;;;;5026401;28;20067;-81
2023/12/11 09:53:35;;;;;;;3.45;1.40;;;;;;;;;;5043257;28;20064;-81
2023/12/11 09:56:09;;;;;;;3.60;1.00;;;;;;;;;;5054159;28;20056;-81
2023/12/11 09:58:41;;;;;;;4.25;2.05;;;;;;;;;;5055953;28;20060;-80
2023/12/11 10:01:10;;;;;;;0.70;0.70;;;;;;;;;;5054765;28;20048;-81
2023/12/11 10:03:40;;;;;;;2.63;1.02;;;;;;;;;;5026679;28;20056;-80
2023/12/11 10:06:11;;;;;;;1.75;0.90;;;;;;;;;;5025806;28;20065;-81
2023/12/11 10:08:43;;;;;;;1.95;1.00;;;;;;;;;;5034461;28;20064;-81
2023/12/11 10:11:11;;;;;;;1.95;1.20;;;;;;;;;;5045399;28;20052;-81
2023/12/11 10:13:41;;;;;;;1.83;1.10;;;;;;;;;;5028449;28;20049;-81
2023/12/11 10:16:28;;;;;;;2.10;0.98;;;;;;;;;;5046278;28;20056;-81
2023/12/11 10:18:55;;;;;;;4.60;1.00;;;;;;;;;;5052200;28;20068;-81
2023/12/11 10:21:25;;;;;;;3.72;1.02;;;;;;;;;;5063152;28;20045;-80
2023/12/11 10:24:04;;;;;;;3.50;1.63;;;;;;;;;;5044168;28;20684;-80
2023/12/11 10:26:37;;;;;;;3.03;1.13;;;;;;;;;;5045171;28;20045;-80
2023/12/11 10:29:18;;;;;;;2.50;1.50;;;;;;;;;;5062785;28;20045;-80
2023/12/11 10:31:48;;;;;;;1.52;1.17;;;;;;;;;;5032385;28;20052;-80
2023/12/11 10:34:18;;;;;;;3.15;1.25;;;;;;;;;;5039717;28;20056;-80
2023/12/11 10:36:52;;;;;;;2.45;1.30;;;;;;;;;;5063106;28;20055;-81
2023/12/11 10:39:22;;;;;;;12.18;1.95;;;;;;;;;;5061704;28;20060;-80
2023/12/11 10:41:49;;;;;;;2.13;1.23;;;;;;;;;;5028709;28;20064;-81
2023/12/11 10:44:23;;;;;;;4.57;1.60;;;;;;;;;;5030305;28;20053;-81
2023/12/11 10:46:53;;;;;;;4.60;1.77;;;;;;;;;;5030259;28;20057;-81
2023/12/11 10:49:23;;;;;;;3.72;1.40;;;;;;;;;;5024470;28;20049;-81
2023/12/11 10:51:55;;;;;;;8.85;1.52;;;;;;;;;;5022022;28;20052;-80
2023/12/11 10:54:25;;;;;;;2.20;1.48;;;;;;;;;;5045893;28;20072;-81
2023/12/11 10:56:54;;;;;;;3.65;1.75;;;;;;;;;;5025624;28;20039;-81
2023/12/11 10:59:21;;;;;;;3.03;1.77;;;;;;;;;;5035695;28;20055;-80
2023/12/11 11:01:50;;;;;;;4.53;2.30;;;;;;;;;;5025623;28;20049;-80
2023/12/11 11:04:20;;;;;;;3.92;1.30;;;;;;;;;;5026460;28;20045;-81
2023/12/11 11:06:52;;;;;;;5.03;1.70;;;;;;;;;;5035574;28;20056;-81
2023/12/11 11:09:30;;;;;;;5.70;2.25;;;;;;;;;;5029344;28;20051;-81
2023/12/11 11:12:04;;;;;;;2.60;1.27;;;;;;;;;;5003142;28;20063;-81
2023/12/11 11:14:43;;;;;;;5.00;1.80;;;;;;;;;;5021811;28;20053;-81
2023/12/11 11:17:12;;;;;;;3.75;2.55;;;;;;;;;;5041069;28;20060;-81
2023/12/11 11:20:12;;;;;;;5.00;1.77;;;;;;;;;;5042037;28;20049;-81
2023/12/11 11:22:40;;;;;;;8.48;3.03;;;;;;;;;;5024236;28;20046;-81
2023/12/11 11:25:32;;;;;;;10.00;2.25;;;;;;;;;;5041696;28;20072;-81
2023/12/11 11:27:59;;;;;;;4.90;1.40;;;;;;;;;;5031032;28;21411;-81
2023/12/11 11:30:52;;;;;;;2.85;1.38;;;;;;;;;;5015608;28;20045;-81
2023/12/11 11:33:20;;;;;;;6.97;2.50;;;;;;;;;;5019263;28;20053;-81
2023/12/11 11:35:52;;;;;;;4.28;1.98;;;;;;;;;;5056251;28;20047;-81
2023/12/11 11:38:21;;;;;;;10.65;2.33;;;;;;;;;;5044593;28;20057;-81
2023/12/11 11:40:52;;;;;;;4.65;1.83;;;;;;;;;;5043867;28;20245;-81
2023/12/11 11:43:25;;;;;;;6.18;2.28;;;;;;;;;;5060389;28;20052;-81
2023/12/11 11:45:55;;;;;;;8.18;1.67;;;;;;;;;;5042255;28;20064;-81
2023/12/11 11:48:42;;;;;;;3.90;1.85;;;;;;;;;;5058335;28;20057;-81
2023/12/11 11:51:10;;;;;;;3.63;1.73;;;;;;;;;;5017935;28;20056;-81
2023/12/11 11:53:37;;;;;;;3.38;1.92;;;;;;;;;;5039996;28;20534;-81
2023/12/11 11:56:09;;;;;;;6.43;2.97;;;;;;;;;;5042617;28;20057;-81
2023/12/11 11:58:36;;;;;;;9.20;2.30;;;;;;;;;;5044038;28;20052;-81
2023/12/11 12:01:04;;;;;;;6.88;2.00;;;;;;;;;;5042088;28;20049;-81
2023/12/11 12:03:40;;;;;;;3.15;1.70;;;;;;;;;;5041726;28;20041;-81
2023/12/11 12:06:07;;;;;;;;;;;;;;;;;;5021722;28;20053;-81
2023/12/11 12:08:36;;;;;;;5.18;1.95;;;;;;;;;;5044398;28;19921;-81
2023/12/11 12:11:05;;;;;;;3.85;2.55;;;;;;;;;;5044424;28;20056;-81
2023/12/11 12:13:36;;;;;;;5.25;2.47;;;;;;;;;;5062124;28;20040;-81
2023/12/11 12:16:04;;;;;;;7.50;2.38;;;;;;;;;;5044977;28;20049;-81
2023/12/11 12:18:33;;;;;;;6.60;1.63;;;;;;;;;;5067379;28;20056;-81
2023/12/11 12:21:02;;;;;;;3.83;2.13;;;;;;;;;;5066695;28;20056;-81
2023/12/11 12:23:32;;;;;;;5.78;2.08;;;;;;;;;;5049455;28;20053;-81
2023/12/11 12:26:04;;;;;;;7.90;3.05;;;;;;;;;;5047858;28;20048;-81
2023/12/11 12:28:32;;;;;;;6.00;1.95;;;;;;;;;;5030285;28;20049;-81
2023/12/11 12:31:01;;;;;;;3.83;2.00;;;;;;;;;;5046145;28;20060;-81
2023/12/11 12:33:28;;;;;;;6.03;2.33;;;;;;;;;;5048784;28;20049;-81
2023/12/11 12:35:56;;;;;;;6.00;2.53;;;;;;;;;;5064768;28;20064;-81
2023/12/11 12:38:23;;;;;;;6.15;2.40;;;;;;;;;;5046684;28;20049;-81
2023/12/11 12:40:54;;;;;;;4.28;1.80;;;;;;;;;;5026721;28;20423;-81
2023/12/11 12:43:24;;;;;;;3.53;2.05;;;;;;;;;;5056941;28;20059;-81
2023/12/11 12:45:52;;;;;;;8.18;2.28;;;;;;;;;;5044815;28;20060;-81
2023/12/11 12:48:28;;;;;;;5.47;1.52;;;;;;;;;;5050235;28;20045;-81
2023/12/11 12:51:05;;;;;;;5.70;2.17;;;;;;;;;;5053010;28;20060;-81
2023/12/11 12:53:32;;;;;;;5.68;1.77;;;;;;;;;;5030769;28;20553;-81
2023/12/11 12:56:00;;;;;;;2.90;1.60;;;;;;;;;;5064314;28;20063;-79
2023/12/11 12:58:29;;;;;;;7.35;2.35;;;;;;;;;;5039698;28;20053;-78
2023/12/11 13:01:01;;;;;;;10.77;2.45;;;;;;;;;;5043568;28;20060;-79
2023/12/11 13:03:33;;;;;;;4.15;1.60;;;;;;;;;;5023173;28;20056;-78
2023/12/11 13:06:00;;;;;;;3.33;1.70;;;;;;;;;;5024749;28;20060;-78
2023/12/11 13:08:28;;;;;;;4.75;1.70;;;;;;;;;;5043908;28;20045;-79
2023/12/11 13:10:57;;;;;;;4.28;2.40;;;;;;;;;;5020124;28;20049;-78
2023/12/11 13:13:29;;;;;;;2.47;1.48;;;;;;;;;;5033419;28;20037;-78
2023/12/11 13:15:59;;;;;;;6.00;2.92;;;;;;;;;;5054954;28;20061;-78
2023/12/11 13:18:30;;;;;;;5.40;1.30;;;;;;;;;;5038436;28;20049;-78
2023/12/11 13:21:01;;;;;;;5.05;1.65;;;;;;;;;;5027828;28;20049;-78
2023/12/11 13:23:28;;;;;;;7.88;3.15;;;;;;;;;;5018929;28;20049;-78
2023/12/11 13:25:56;;;;;;;3.72;1.45;;;;;;;;;;5022901;28;20048;-78
2023/12/11 13:28:23;;;;;;;4.90;2.00;;;;;;;;;;5034607;28;20052;-77
2023/12/11 13:30:53;;;;;;;3.30;2.00;;;;;;;;;;5024284;28;20045;-77
2023/12/11 13:33:22;;;;;;;5.95;2.03;;;;;;;;;;5045738;28;20064;-77
2023/12/11 13:35:50;;;;;;;4.30;2.30;;;;;;;;;;5019156;28;20065;-77
2023/12/11 13:38:20;;;;;;;3.85;2.28;;;;;;;;;;5013837;28;20048;-77
2023/12/11 13:40:50;;;;;;;3.85;1.52;;;;;;;;;;5030703;28;20057;-77
2023/12/11 13:43:20;;;;;;;12.13;2.97;;;;;;;;;;5016409;28;20056;-77
2023/12/11 13:45:47;;;;;;;5.15;2.33;;;;;;;;;;5028820;28;20040;-77
2023/12/11 13:48:16;;;;;;;3.60;1.55;;;;;;;;;;5031154;28;20045;-77
2023/12/11 13:50:47;;;;;;;4.57;2.75;;;;;;;;;;5027780;28;20060;-77
2023/12/11 13:53:22;;;;;;;6.13;2.22;;;;;;;;;;5017826;28;20056;-80
2023/12/11 13:55:52;;;;;;;5.60;2.50;;;;;;;;;;5022916;28;20044;-80
2023/12/11 13:58:19;;;;;;;7.40;2.28;;;;;;;;;;5041580;28;20048;-81
2023/12/11 14:00:49;;;;;;;3.38;1.33;;;;;;;;;;5058919;28;20063;-81
2023/12/11 14:03:21;;;;;;;4.35;1.58;;;;;;;;;;5037905;28;20052;-81
2023/12/11 14:05:49;;;;;;;8.52;2.05;;;;;;;;;;5057785;28;20409;-81
2023/12/11 14:08:17;;;;;;;3.58;1.25;;;;;;;;;;5041512;28;20049;-81
2023/12/11 14:10:45;;;;;;;3.15;1.70;;;;;;;;;;5057223;28;20052;-81
2023/12/11 14:13:14;;;;;;;9.73;2.47;;;;;;;;;;5054994;28;20045;-81
2023/12/11 14:15:46;;;;;;;9.40;2.28;;;;;;;;;;5056584;28;20052;-81
2023/12/11 14:18:13;;;;;;;8.52;2.38;;;;;;;;;;5059350;28;20044;-81
2023/12/11 14:20:43;;;;;;;5.20;2.22;;;;;;;;;;5041630;28;20053;-81
2023/12/11 14:23:13;;;;;;;5.70;2.60;;;;;;;;;;5041083;28;20438;-81
2023/12/11 14:25:40;;;;;;;4.45;2.13;;;;;;;;;;5040920;28;20049;-81
2023/12/11 14:28:09;;;;;;;4.57;1.92;;;;;;;;;;5041102;28;20053;-81
2023/12/11 14:30:36;;;;;;;3.22;1.88;;;;;;;;;;5039121;28;20053;-81
2023/12/11 14:33:07;;;;;;;7.95;3.30;;;;;;;;;;5055416;28;20052;-81
2023/12/11 14:35:36;;;;;;;11.13;2.65;;;;;;;;;;5040516;28;20064;-81
2023/12/11 14:38:04;;;;;;;7.68;2.42;;;;;;;;;;5041911;28;20041;-81
2023/12/11 14:40:31;;;;;;;8.10;2.58;;;;;;;;;;5058612;28;20087;-81
2023/12/11 14:43:02;;;;;;;4.90;1.90;;;;;;;;;;5055950;28;20060;-81
2023/12/11 14:45:31;;;;;;;6.05;2.38;;;;;;;;;;5062331;28;20269;-81
2023/12/11 14:47:58;;;;;;;4.47;1.85;;;;;;;;;;5058809;28;20044;-81
2023/12/11 14:50:25;;;;;;;4.95;1.77;;;;;;;;;;5042035;28;20052;-81
2023/12/11 14:52:53;;;;;;;2.47;1.65;;;;;;;;;;5077473;28;20514;-80
2023/12/11 14:55:22;;;;;;;8.02;2.92;;;;;;;;;;5079907;28;20052;-80